Detalii statie AGROMEC VLAD TEPES [00001989]

Toti senzorii

Date Temperatura solului [C]Precipitatii [mm]Voltaj baterie [mV]Leaf Wetness [Min]HC Air temperature [C]HC Relative humidity [%]Punctul de roua [C]
medieminmaxsumaultimatimpmedieminmaxmediemediemin
2018-06-20 10:00:00 28.7 28.3 29.2 0 7274 30.65 29.85 31.29 0 0 0
2018-06-20 11:00:00 30.4 29.3 32.2 0 7246 32.09 31.42 32.82 0 0 0
2018-06-20 12:00:00 31.7 30.9 33.2 0 7254 32.88 32 33.83 0 0 0
2018-06-20 13:00:00 33.1 32.4 34.2 0 6942 33.56 32.75 34.91 0 0 0
2018-06-20 14:00:00 34.2 33.6 35.9 0 6874 34 33.43 34.73 0 0 0
2018-06-20 15:00:00 35.1 34.6 35.5 0 6816 34.18 33.62 34.74 0 0 0
2018-06-20 16:00:00 36.1 35.7 37.5 0 6806 34.36 33.71 35.12 0 0 0
2018-06-20 17:00:00 43.8 43.3 45.7 0 6738 60 33.95 33.39 34.4 0 0 0
2018-06-20 18:00:00 36.8 36.5 38.1 0 6786 32.91 32.46 33.68 0 0 0
2018-06-20 19:00:00 36.5 36.1 37.8 0 6738 31.88 30.82 32.56 0 0 0
2018-06-20 20:00:00 35.6 35 36.9 0 6660 28.47 26.98 30.36 0 0 0
2018-06-20 21:00:00 34.6 34.2 35 0 6660 24.18 23.22 26.41 0 0 0
2018-06-20 22:00:00 33.9 33.3 34.9 0 6630 22.86 21.95 23.57 0 0 0
2018-06-20 23:00:00 32.9 32.6 34.5 0 6610 21.41 20.71 21.84 0 0 0
2018-06-21 00:00:00 32 31.9 32.3 0 6630 21.39 20.54 22.71 0 0 0
2018-06-21 01:00:00 31.3 30.7 31.9 0 6600 22.63 21.87 22.89 0 0 0
2018-06-21 02:00:00 31.1 30.7 32.5 0 6600 21.87 21.62 22.24 0 0 0
2018-06-21 03:00:00 30.3 30 30.7 0 6620 21.83 21.44 22.29 0 0 0
2018-06-21 04:00:00 29.8 29.7 30.2 0 6620 21.31 21.11 21.6 0 0 0
2018-06-21 05:00:00 29.5 29.2 29.7 0 6600 22.01 21.07 22.67 0 0 0
2018-06-21 06:00:00 29.3 29.1 30.8 0 6668 22.83 22.7 23.3 0 0 0
2018-06-21 07:00:00 29.1 28.9 30.7 10.8 6650 22.51 20.22 23.49 0 0 0
2018-06-21 08:00:00 27.7 26.3 30.4 21.8 7020 20.27 19.21 22.51 0 0 0
2018-06-21 09:00:00 27.4 27.2 28.7 0 7236 24.96 22.92 27.31 0 0 0
2018-06-21 10:00:00 27.8 27.4 29.4 0 7148 28.19 27.03 29.96 0 0 0
2018-06-21 11:00:00 28.8 28.1 30.2 0 7060 30.9 29.97 32.11 0 0 0
2018-06-21 12:00:00 29.7 29.1 30.4 0 7030 30.76 30.13 31.78 0 0 0
2018-06-21 13:00:00 30.7 30.3 31.2 0 6922 30.33 27.87 31.89 0 0 0
2018-06-21 14:00:00 31.2 31 31.3 0 6894 27.44 26.8 28.14 0 0 0
2018-06-21 15:00:00 31.1 31 31.3 0 6854 26.49 25.88 27.52 0 0 0
2018-06-21 16:00:00 30.8 30.6 32.2 0 6796 26.02 25.41 26.54 0 0 0
2018-06-21 17:00:00 30.2 29.9 30.7 0 6816 25.02 24.67 25.44 100 24.9 24.6
2018-06-21 18:00:00 29.9 29.7 30.1 0 6844 25.6 25.15 25.85 100 25.5 25.1
2018-06-21 19:00:00 29.5 29.2 29.9 0 6826 25.16 24.5 25.59 100 25.1 24.5
2018-06-21 20:00:00 29.3 29 30.8 0 6718 23.74 22.98 24.42 8.33 0
2018-06-21 21:00:00 28.8 28.7 29.2 0 6660 22.3 22.07 22.68 0 0 0
2018-06-21 22:00:00 28.4 28.3 28.7 0 6660 21.68 21.18 22.11 0 0 0
2018-06-21 23:00:00 28.1 27.9 28.4 0 6620 21.14 21 21.3 0 0 0
2018-06-22 00:00:00 27.8 27.6 29.1 0 6610 20.75 20.52 20.96 0 0 0
2018-06-22 01:00:00 27.3 26.6 27.6 0 6610 20.34 19.98 20.66 0 0 0
2018-06-22 02:00:00 27.1 27 27.3 0 6630 19.95 19.65 20.23 0 0 0
2018-06-22 03:00:00 26.8 26.5 28.2 0 6600 19.25 19.1 19.51 0 0 0
2018-06-22 04:00:00 26.4 26.2 26.7 0 6620 19.17 18.95 19.33 0 0 0
2018-06-22 05:00:00 26.1 25.9 26.3 0 6630 19.03 18.8 19.17 0 0 0
2018-06-22 06:00:00 25.9 25.7 27.2 0 6864 19.45 19.17 19.79 0 0 0
2018-06-22 07:00:00 25.6 25.5 25.8 0 7196 21.12 20.04 22.57 0 0 0
2018-06-22 08:00:00 25.6 25.5 25.8 0 7246 24.47 22.8 26.01 50 12.7 0
2018-06-22 09:00:00 26.2 25.7 27.4 0 7098 27.15 26.01 28.65 97.42 26.6 26